createdAt,value
2018-10-21T00:00:12.586Z,101297.95
2018-10-21T00:02:41.697Z,101302.20
2018-10-21T00:05:11.577Z,101293.39
2018-10-21T00:07:40.701Z,101295.27
2018-10-21T00:10:11.003Z,101299.77
2018-10-21T00:12:40.280Z,101291.19
2018-10-21T00:15:10.264Z,101301.34
2018-10-21T00:17:39.271Z,101293.03
2018-10-21T00:20:08.594Z,101301.34
2018-10-21T00:22:37.548Z,101301.34
2018-10-21T00:25:06.709Z,101296.25
2018-10-21T00:27:35.993Z,101300.00
2018-10-21T00:30:05.000Z,101294.04
2018-10-21T00:32:39.557Z,101297.86
2018-10-21T00:35:08.965Z,101295.50
2018-10-21T00:37:38.025Z,101297.41
2018-10-21T00:40:07.858Z,101295.48
2018-10-21T00:42:36.882Z,101298.42
2018-10-21T00:45:06.563Z,101303.21
2018-10-21T00:47:35.518Z,101298.63
2018-10-21T00:50:05.446Z,101301.00
2018-10-21T00:52:34.443Z,101298.59
2018-10-21T00:55:03.508Z,101292.60
2018-10-21T00:57:32.471Z,101294.51
2018-10-21T01:00:01.462Z,101291.30
2018-10-21T01:02:30.426Z,101279.20
2018-10-21T01:04:59.410Z,101281.63
2018-10-21T01:07:28.489Z,101281.59
2018-10-21T01:09:57.505Z,101281.02
2018-10-21T01:12:26.602Z,101281.28
2018-10-21T01:14:55.544Z,101280.45
2018-10-21T01:17:24.501Z,101277.00
2018-10-21T01:19:53.437Z,101281.32
2018-10-21T01:22:22.487Z,101279.11
2018-10-21T01:24:51.417Z,101274.32
2018-10-21T01:27:20.575Z,101275.13
2018-10-21T01:29:49.578Z,101279.47
2018-10-21T01:32:18.887Z,101282.09
2018-10-21T01:34:47.894Z,101280.28
2018-10-21T01:37:16.905Z,101277.03
2018-10-21T01:40:52.789Z,101285.57
2018-10-21T01:43:23.055Z,101286.41
2018-10-21T01:45:52.030Z,101285.57
2018-10-21T01:48:22.177Z,101284.59
2018-10-21T01:50:51.145Z,101281.89
2018-10-21T01:53:20.761Z,101281.32
2018-10-21T01:55:49.864Z,101281.52
2018-10-21T01:58:18.847Z,101272.91
2018-10-21T02:00:47.909Z,101276.09
2018-10-21T02:03:17.305Z,101278.78
2018-10-21T02:05:46.960Z,101279.84
2018-10-21T02:08:15.972Z,101275.33
2018-10-21T02:10:44.933Z,101269.80
2018-10-21T02:13:15.014Z,101278.88
2018-10-21T02:15:43.955Z,101272.65
2018-10-21T02:18:13.000Z,101268.39
2018-10-21T02:20:41.982Z,101271.04
2018-10-21T02:23:10.946Z,101270.03
2018-10-21T02:25:39.937Z,101270.34
2018-10-21T02:28:08.958Z,101262.84
2018-10-21T02:30:37.943Z,101264.95
2018-10-21T02:33:07.096Z,101268.33
2018-10-21T02:35:35.994Z,101262.38
2018-10-21T02:38:05.518Z,101272.02
2018-10-21T02:41:45.903Z,101264.72
2018-10-21T02:44:18.051Z,101272.91
2018-10-21T02:46:47.706Z,101264.34
2018-10-21T02:49:17.221Z,101267.19
2018-10-21T02:51:51.727Z,101266.92
2018-10-21T02:54:23.981Z,101266.88
2018-10-21T02:56:53.174Z,101271.13
2018-10-21T02:59:22.540Z,101271.39
2018-10-21T03:01:51.579Z,101261.53
2018-10-21T03:04:20.886Z,101257.25
2018-10-21T03:06:50.241Z,101261.19
2018-10-21T03:09:19.304Z,101264.86
2018-10-21T03:11:48.253Z,101261.27
2018-10-21T03:14:17.189Z,101266.41
2018-10-21T03:16:46.147Z,101264.91
2018-10-21T03:19:16.018Z,101270.09
2018-10-21T03:21:45.039Z,101267.42
2018-10-21T03:24:14.067Z,101273.80
2018-10-21T03:26:43.007Z,101281.55
2018-10-21T03:29:11.951Z,101277.02
2018-10-21T03:31:40.942Z,101275.44
2018-10-21T03:34:09.970Z,101275.19
2018-10-21T03:36:38.889Z,101280.22
2018-10-21T03:39:09.130Z,101274.25
2018-10-21T03:41:38.125Z,101275.59
2018-10-21T03:44:07.190Z,101276.36
2018-10-21T03:46:36.244Z,101278.98
2018-10-21T03:49:05.272Z,101280.37
2018-10-21T03:51:34.290Z,101278.27
2018-10-21T03:54:03.230Z,101278.03
2018-10-21T03:56:32.274Z,101277.77
2018-10-21T03:59:01.244Z,101274.83
2018-10-21T04:01:30.170Z,101276.82
2018-10-21T04:03:59.214Z,101273.58
2018-10-21T04:06:28.147Z,101273.84
2018-10-21T04:08:57.174Z,101276.25
2018-10-21T04:11:26.230Z,101276.97
2018-10-21T04:13:55.241Z,101285.48
2018-10-21T04:16:24.261Z,101281.08
2018-10-21T04:18:53.345Z,101281.62
2018-10-21T04:21:22.331Z,101287.55
2018-10-21T04:23:51.287Z,101287.86
2018-10-21T04:26:20.350Z,101294.09
2018-10-21T04:28:49.386Z,101289.85
2018-10-21T04:31:18.414Z,101292.00
2018-10-21T04:33:47.422Z,101284.77
2018-10-21T04:36:19.391Z,101281.59
2018-10-21T04:40:03.689Z,101284.31
2018-10-21T04:42:32.681Z,101286.00
2018-10-21T04:45:02.133Z,101293.04
2018-10-21T04:47:31.345Z,101287.61
2018-10-21T04:50:00.368Z,101289.33
2018-10-21T04:52:30.496Z,101294.80
2018-10-21T04:55:04.891Z,101297.02
2018-10-21T04:57:34.095Z,101305.35
2018-10-21T05:00:03.056Z,101300.84
2018-10-21T05:02:32.770Z,101302.72
2018-10-21T05:05:01.681Z,101303.75
2018-10-21T05:07:30.669Z,101307.73
2018-10-21T05:09:59.647Z,101305.63
2018-10-21T05:12:28.724Z,101307.53
2018-10-21T05:14:57.717Z,101309.48
2018-10-21T05:17:26.675Z,101310.83
2018-10-21T05:19:55.626Z,101312.89
2018-10-21T05:22:24.638Z,101313.81
2018-10-21T05:24:53.726Z,101315.11
2018-10-21T05:27:22.704Z,101317.52
2018-10-21T05:29:51.681Z,101310.59
2018-10-21T05:32:20.709Z,101318.86
2018-10-21T05:34:49.696Z,101319.85
2018-10-21T05:37:18.696Z,101314.64
2018-10-21T05:39:47.700Z,101312.85
2018-10-21T05:42:16.873Z,101309.03
2018-10-21T05:44:45.884Z,101315.98
2018-10-21T05:47:14.893Z,101316.02
2018-10-21T05:49:43.854Z,101316.71
2018-10-21T05:52:12.907Z,101320.00
2018-10-21T05:54:42.877Z,101317.55
2018-10-21T05:57:11.898Z,101324.48
2018-10-21T05:59:40.874Z,101327.92
2018-10-21T06:02:09.887Z,101329.52
2018-10-21T06:04:38.850Z,101336.67
2018-10-21T06:07:07.844Z,101335.25
2018-10-21T06:09:36.857Z,101333.49
2018-10-21T06:12:06.244Z,101333.19
2018-10-21T06:14:35.253Z,101348.13
2018-10-21T06:17:10.599Z,101348.21
2018-10-21T06:19:42.462Z,101354.33
2018-10-21T06:22:11.675Z,101356.20
2018-10-21T06:24:40.524Z,101357.15
2018-10-21T06:27:09.543Z,101355.55
2018-10-21T06:29:38.538Z,101367.70
2018-10-21T06:32:07.514Z,101367.56
2018-10-21T06:34:36.624Z,101368.33
2018-10-21T06:37:05.830Z,101375.98
2018-10-21T06:39:34.925Z,101379.73
2018-10-21T06:42:03.933Z,101384.25
2018-10-21T06:44:32.987Z,101384.22
2018-10-21T06:47:02.054Z,101386.59
2018-10-21T06:49:32.661Z,101389.61
2018-10-21T06:52:01.651Z,101393.05
2018-10-21T06:54:30.642Z,101396.19
2018-10-21T06:56:59.750Z,101395.16
2018-10-21T06:59:28.647Z,101395.55
2018-10-21T07:01:57.744Z,101397.00
2018-10-21T07:04:26.829Z,101393.09
2018-10-21T07:06:55.860Z,101396.37
2018-10-21T07:09:24.924Z,101400.17
2018-10-21T07:11:53.974Z,101396.09
2018-10-21T07:14:23.004Z,101394.30
2018-10-21T07:16:52.087Z,101394.51
2018-10-21T07:19:21.098Z,101398.00
2018-10-21T07:21:50.113Z,101400.00
2018-10-21T07:24:19.266Z,101399.06
2018-10-21T07:26:48.270Z,101394.48
2018-10-21T07:29:17.280Z,101397.36
2018-10-21T07:31:46.261Z,101397.33
2018-10-21T07:34:15.346Z,101397.41
2018-10-21T07:36:44.352Z,101393.45
2018-10-21T07:39:13.429Z,101394.48
2018-10-21T07:41:42.569Z,101399.67
2018-10-21T07:44:11.665Z,101398.12
2018-10-21T07:46:40.708Z,101402.79
2018-10-21T07:49:09.834Z,101399.25
2018-10-21T07:51:38.953Z,101398.42
2018-10-21T07:54:07.944Z,101401.98
2018-10-21T07:56:37.086Z,101406.40
2018-10-21T07:59:06.414Z,101405.54
2018-10-21T08:01:35.420Z,101404.06
2018-10-21T08:04:04.514Z,101402.80
2018-10-21T08:06:45.085Z,101398.02
2018-10-21T08:09:14.113Z,101402.39
2018-10-21T08:11:43.176Z,101406.97
2018-10-21T08:14:12.173Z,101403.72
2018-10-21T08:16:41.235Z,101408.84
2018-10-21T08:19:10.289Z,101405.52
2018-10-21T08:21:39.436Z,101400.02
2018-10-21T08:24:08.516Z,101406.22
2018-10-21T08:26:37.656Z,101404.88
2018-10-21T08:29:06.713Z,101402.85
2018-10-21T08:31:35.915Z,101413.36
2018-10-21T08:34:05.293Z,101406.27
2018-10-21T08:36:34.801Z,101407.84
2018-10-21T08:39:05.306Z,101422.44
2018-10-21T08:41:34.422Z,101420.57
2018-10-21T08:44:03.497Z,101410.22
2018-10-21T08:46:32.587Z,101412.76
2018-10-21T08:49:01.633Z,101413.93
2018-10-21T08:51:30.659Z,101415.22
2018-10-21T08:53:59.721Z,101412.09
2018-10-21T08:56:28.804Z,101411.16
2018-10-21T08:58:58.530Z,101413.50
2018-10-21T09:01:27.627Z,101411.67
2018-10-21T09:03:56.714Z,101407.38
2018-10-21T09:06:26.324Z,101406.23
2018-10-21T09:08:55.428Z,101409.48
2018-10-21T09:11:24.521Z,101404.67
2018-10-21T09:13:53.630Z,101407.49
2018-10-21T09:16:22.956Z,101411.66
2018-10-21T09:18:52.103Z,101411.30
2018-10-21T09:21:21.306Z,101417.82
2018-10-21T09:23:51.402Z,101414.30
2018-10-21T09:26:20.362Z,101413.37
2018-10-21T09:28:49.366Z,101411.80
2018-10-21T09:31:18.367Z,101407.16
2018-10-21T09:33:47.322Z,101408.76
2018-10-21T09:36:16.344Z,101410.53
2018-10-21T09:38:45.460Z,101405.84
2018-10-21T09:41:14.431Z,101408.83
2018-10-21T09:43:43.488Z,101411.70
2018-10-21T09:46:12.643Z,101421.13
2018-10-21T09:48:41.676Z,101417.91
2018-10-21T09:51:10.868Z,101417.14
2018-10-21T09:53:39.952Z,101418.68
2018-10-21T09:56:09.025Z,101415.16
2018-10-21T09:58:38.126Z,101411.67
2018-10-21T10:01:12.518Z,101416.42
2018-10-21T10:03:41.603Z,101414.11
2018-10-21T10:06:10.652Z,101412.36
2018-10-21T10:08:39.741Z,101410.70
2018-10-21T10:11:08.824Z,101406.79
2018-10-21T10:13:37.898Z,101405.04
2018-10-21T10:16:06.963Z,101407.19
2018-10-21T10:18:36.094Z,101403.84
2018-10-21T10:21:05.291Z,101399.20
2018-10-21T10:23:34.527Z,101399.26
2018-10-21T10:26:03.592Z,101397.13
2018-10-21T10:28:32.650Z,101395.56
2018-10-21T10:31:01.722Z,101396.63
2018-10-21T10:33:30.942Z,101393.16
2018-10-21T10:36:00.084Z,101392.34
2018-10-21T10:38:29.130Z,101385.50
2018-10-21T10:40:58.162Z,101378.81
2018-10-21T10:43:27.438Z,101377.93
2018-10-21T10:45:57.540Z,101365.89
2018-10-21T10:48:26.588Z,101359.81
2018-10-21T10:50:55.708Z,101364.23
2018-10-21T10:53:24.707Z,101362.53
2018-10-21T10:55:53.808Z,101355.41
2018-10-21T10:58:22.876Z,101356.80
2018-10-21T11:00:51.892Z,101362.27
2018-10-21T11:03:20.941Z,101361.89
2018-10-21T11:05:49.937Z,101355.61
2018-10-21T11:08:19.024Z,101364.06
2018-10-21T11:10:55.696Z,101356.96
2018-10-21T11:13:25.390Z,101356.70
2018-10-21T11:15:54.437Z,101352.21
2018-10-21T11:18:23.395Z,101346.30
2018-10-21T11:20:52.426Z,101348.31
2018-10-21T11:23:21.569Z,101343.55
2018-10-21T11:25:50.665Z,101334.46
2018-10-21T11:28:24.148Z,101330.43
2018-10-21T11:30:53.187Z,101331.05
2018-10-21T11:33:22.153Z,101330.17
2018-10-21T11:35:51.248Z,101326.45
2018-10-21T11:38:20.270Z,101330.58
2018-10-21T11:40:49.414Z,101327.73
2018-10-21T11:43:18.544Z,101317.51
2018-10-21T11:45:47.712Z,101321.16
2018-10-21T11:48:16.791Z,101322.45
2018-10-21T11:50:46.097Z,101330.57
2018-10-21T11:53:15.335Z,101325.16
2018-10-21T11:55:44.350Z,101331.20
2018-10-21T11:58:14.971Z,101330.42
2018-10-21T12:00:45.188Z,101325.07
2018-10-21T12:03:14.184Z,101326.78
2018-10-21T12:05:43.603Z,101328.34
2018-10-21T12:08:13.197Z,101328.34
2018-10-21T12:10:42.220Z,101322.23
2018-10-21T12:13:11.493Z,101331.52
2018-10-21T12:15:40.435Z,101331.03
2018-10-21T12:18:09.625Z,101323.57
2018-10-21T12:20:39.117Z,101318.26
2018-10-21T12:23:08.483Z,101325.30
2018-10-21T12:25:37.472Z,101324.47
2018-10-21T12:28:06.835Z,101325.53
2018-10-21T12:30:35.873Z,101317.56
2018-10-21T12:33:05.079Z,101314.11
2018-10-21T12:35:34.112Z,101313.52
2018-10-21T12:38:03.121Z,101312.39
2018-10-21T12:40:32.331Z,101309.94
2018-10-21T12:43:01.562Z,101309.30
2018-10-21T12:46:08.429Z,101306.43
2018-10-21T12:48:41.134Z,101315.67
2018-10-21T12:51:10.637Z,101306.03
2018-10-21T12:53:40.314Z,101309.23
2018-10-21T12:56:12.785Z,101304.73
2018-10-21T12:58:43.473Z,101298.84
2018-10-21T13:01:13.836Z,101293.41
2018-10-21T13:03:44.246Z,101293.67
2018-10-21T13:06:15.605Z,101281.59
2018-10-21T13:08:44.754Z,101289.30
2018-10-21T13:11:13.929Z,101283.63
2018-10-21T13:13:43.129Z,101275.52
2018-10-21T13:16:12.484Z,101276.83
2018-10-21T13:18:41.605Z,101268.62
2018-10-21T13:21:10.735Z,101263.59
2018-10-21T13:23:39.833Z,101259.89
2018-10-21T13:26:08.853Z,101263.44
2018-10-21T13:28:37.935Z,101254.34
2018-10-21T13:31:07.013Z,101255.05
2018-10-21T13:33:38.064Z,101261.16
2018-10-21T13:36:07.202Z,101266.36
2018-10-21T13:38:36.362Z,101267.71
2018-10-21T13:41:05.727Z,101268.56
2018-10-21T13:43:34.910Z,101270.38
2018-10-21T13:46:04.632Z,101269.52
2018-10-21T13:48:33.738Z,101266.39
2018-10-21T13:51:02.918Z,101262.14
2018-10-21T13:53:32.089Z,101265.13
2018-10-21T13:56:01.038Z,101259.58
2018-10-21T13:58:30.032Z,101254.88
2018-10-21T14:00:59.298Z,101260.66
2018-10-21T14:03:28.259Z,101252.53
2018-10-21T14:05:57.424Z,101264.11
2018-10-21T14:08:26.492Z,101256.52
2018-10-21T14:10:56.034Z,101249.22
2018-10-21T14:13:25.113Z,101249.38
2018-10-21T14:15:54.181Z,101250.20
2018-10-21T14:18:23.171Z,101250.24
2018-10-21T14:20:52.421Z,101253.02
2018-10-21T14:23:21.748Z,101247.03
2018-10-21T14:25:51.166Z,101244.96
2018-10-21T14:28:20.355Z,101242.09
2018-10-21T14:30:49.585Z,101242.78
2018-10-21T14:33:18.805Z,101249.23
2018-10-21T14:35:47.847Z,101247.31
2018-10-21T14:38:17.106Z,101241.04
2018-10-21T14:40:46.223Z,101239.52
2018-10-21T14:43:15.443Z,101238.53
2018-10-21T14:45:44.849Z,101239.00
2018-10-21T14:48:13.903Z,101244.58
2018-10-21T14:50:44.598Z,101237.30
2018-10-21T14:53:14.846Z,101240.75
2018-10-21T14:55:45.308Z,101238.02
2018-10-21T14:58:14.804Z,101235.38
2018-10-21T15:00:44.543Z,101236.02
2018-10-21T15:03:13.690Z,101238.33
2018-10-21T15:05:42.815Z,101240.54
2018-10-21T15:08:11.933Z,101241.14
2018-10-21T15:10:40.951Z,101248.11
2018-10-21T15:13:10.054Z,101243.28
2018-10-21T15:15:39.187Z,101240.23
2018-10-21T15:18:08.466Z,101239.08
2018-10-21T15:20:37.702Z,101242.42
2018-10-21T15:23:06.919Z,101239.53
2018-10-21T15:25:35.909Z,101246.09
2018-10-21T15:28:05.279Z,101240.76
2018-10-21T15:30:34.327Z,101242.95
2018-10-21T15:33:04.077Z,101238.68
2018-10-21T15:35:33.308Z,101242.80
2018-10-21T15:38:02.452Z,101240.92
2018-10-21T15:40:31.627Z,101240.95
2018-10-21T15:43:00.841Z,101242.80
2018-10-21T15:45:30.243Z,101240.64
2018-10-21T15:48:01.967Z,101245.18
2018-10-21T15:50:31.526Z,101241.62
2018-10-21T15:53:00.951Z,101242.94
2018-10-21T15:55:36.430Z,101248.22
2018-10-21T15:58:06.006Z,101244.39
2018-10-21T16:00:35.277Z,101244.80
2018-10-21T16:03:04.536Z,101244.70
2018-10-21T16:05:34.095Z,101244.34
2018-10-21T16:08:03.461Z,101245.53
2018-10-21T16:10:32.730Z,101238.98
2018-10-21T16:13:02.040Z,101243.17
2018-10-21T16:15:31.320Z,101255.14
2018-10-21T16:18:00.530Z,101249.63
2018-10-21T16:20:29.722Z,101248.95
2018-10-21T16:22:58.851Z,101251.80
2018-10-21T16:25:28.201Z,101254.64
2018-10-21T16:27:59.043Z,101252.17
2018-10-21T16:30:28.226Z,101253.59
2018-10-21T16:32:57.554Z,101254.54
2018-10-21T16:35:26.654Z,101259.48
2018-10-21T16:37:56.692Z,101258.84
2018-10-21T16:40:25.814Z,101263.78
2018-10-21T16:42:54.914Z,101261.70
2018-10-21T16:45:24.168Z,101261.56
2018-10-21T16:47:53.223Z,101257.20
2018-10-21T16:50:22.575Z,101259.28
2018-10-21T16:52:51.849Z,101265.09
2018-10-21T16:55:21.107Z,101259.64
2018-10-21T16:57:50.260Z,101257.19
2018-10-21T17:00:19.539Z,101264.03
2018-10-21T17:02:48.824Z,101258.26
2018-10-21T17:05:18.084Z,101258.14
2018-10-21T17:07:47.716Z,101261.81
2018-10-21T17:10:17.199Z,101258.29
2018-10-21T17:12:46.028Z,101259.24
2018-10-21T17:15:15.148Z,101259.65
2018-10-21T17:17:44.188Z,101259.03
2018-10-21T17:20:14.763Z,101261.97
2018-10-21T17:22:44.516Z,101264.52
2018-10-21T17:25:14.093Z,101258.14
2018-10-21T17:27:43.443Z,101259.93
2018-10-21T17:30:15.617Z,101262.91
2018-10-21T17:32:45.130Z,101259.62
2018-10-21T17:35:14.299Z,101262.52
2018-10-21T17:37:43.538Z,101256.23
2018-10-21T17:40:13.098Z,101261.31
2018-10-21T17:42:42.177Z,101262.82
2018-10-21T17:45:13.429Z,101267.86
2018-10-21T17:47:42.715Z,101268.63
2018-10-21T17:50:13.284Z,101263.67
2018-10-21T17:52:42.957Z,101267.86
2018-10-21T17:55:12.537Z,101274.13
2018-10-21T17:57:41.618Z,101271.46
2018-10-21T18:00:12.745Z,101269.85
2018-10-21T18:02:42.189Z,101277.23
2018-10-21T18:05:12.837Z,101271.41
2018-10-21T18:07:42.528Z,101277.33
2018-10-21T18:10:12.468Z,101277.41
2018-10-21T18:12:41.460Z,101273.77
2018-10-21T18:15:11.868Z,101279.06
2018-10-21T18:17:41.445Z,101282.33
2018-10-21T18:20:11.694Z,101281.69
2018-10-21T18:22:40.794Z,101278.72
2018-10-21T18:25:10.608Z,101280.58
2018-10-21T18:27:39.962Z,101280.58
2018-10-21T18:30:10.327Z,101273.42
2018-10-21T18:32:39.540Z,101278.77
2018-10-21T18:35:10.005Z,101277.74
2018-10-21T18:37:39.022Z,101272.84
2018-10-21T18:40:15.784Z,101281.91
2018-10-21T18:42:44.967Z,101282.39
2018-10-21T18:45:15.203Z,101281.75
2018-10-21T18:47:44.920Z,101278.44
2018-10-21T18:50:15.067Z,101284.64
2018-10-21T18:52:44.356Z,101279.61
2018-10-21T18:55:13.875Z,101277.44
2018-10-21T18:57:43.056Z,101280.58
2018-10-21T19:00:15.237Z,101282.03
2018-10-21T19:02:44.309Z,101286.23
2018-10-21T19:05:13.986Z,101281.39
2018-10-21T19:07:42.921Z,101281.44
2018-10-21T19:10:13.440Z,101285.59
2018-10-21T19:12:42.600Z,101286.33
2018-10-21T19:15:12.819Z,101290.13
2018-10-21T19:17:42.042Z,101294.28
2018-10-21T19:20:14.664Z,101292.36
2018-10-21T19:22:43.957Z,101295.84
2018-10-21T19:25:14.362Z,101290.60
2018-10-21T19:27:44.338Z,101291.41
2018-10-21T19:30:14.050Z,101286.64
2018-10-21T19:32:43.479Z,101287.54
2018-10-21T19:35:13.528Z,101287.29
2018-10-21T19:37:42.617Z,101287.92
2018-10-21T19:40:14.188Z,101284.56
2018-10-21T19:42:43.707Z,101295.33
2018-10-21T19:45:13.433Z,101288.91
2018-10-21T19:47:42.924Z,101286.99
2018-10-21T19:50:13.252Z,101291.31
2018-10-21T19:52:42.863Z,101290.50
2018-10-21T19:55:12.372Z,101291.19
2018-10-21T19:57:41.271Z,101294.72
2018-10-21T20:00:12.541Z,101290.16
2018-10-21T20:02:41.606Z,101293.79
2018-10-21T20:05:10.838Z,101290.94
2018-10-21T20:07:39.981Z,101294.34
2018-10-21T20:10:10.876Z,101298.95
2018-10-21T20:12:39.837Z,101293.38
2018-10-21T20:15:10.018Z,101289.02
2018-10-21T20:17:39.537Z,101288.88
2018-10-21T20:20:09.668Z,101290.50
2018-10-21T20:22:39.009Z,101285.03
2018-10-21T20:25:09.024Z,101289.20
2018-10-21T20:27:38.070Z,101288.83
2018-10-21T20:30:08.601Z,101290.48
2018-10-21T20:32:37.603Z,101290.63
2018-10-21T20:35:07.478Z,101285.52
2018-10-21T20:37:36.525Z,101288.84
2018-10-21T20:40:06.388Z,101291.44
2018-10-21T20:42:35.317Z,101289.96
2018-10-21T20:45:04.446Z,101291.36
2018-10-21T20:47:33.404Z,101284.42
2018-10-21T20:50:02.481Z,101283.69
2018-10-21T20:52:31.493Z,101289.36
2018-10-21T20:55:00.503Z,101290.48
2018-10-21T20:57:29.504Z,101292.55
2018-10-21T20:59:58.481Z,101287.02
2018-10-21T21:02:27.477Z,101285.44
2018-10-21T21:04:56.482Z,101287.73
2018-10-21T21:07:25.457Z,101282.41
2018-10-21T21:09:54.485Z,101285.59
2018-10-21T21:12:23.443Z,101282.98
2018-10-21T21:14:52.462Z,101286.66
2018-10-21T21:17:21.430Z,101280.95
2018-10-21T21:19:50.434Z,101285.83
2018-10-21T21:22:19.500Z,101279.75
2018-10-21T21:24:48.409Z,101282.47
2018-10-21T21:27:17.441Z,101283.96
2018-10-21T21:29:46.403Z,101284.74
2018-10-21T21:32:15.418Z,101276.45
2018-10-21T21:34:44.395Z,101284.71
2018-10-21T21:37:13.420Z,101280.52
2018-10-21T21:39:42.421Z,101284.19
2018-10-21T21:42:11.472Z,101283.98
2018-10-21T21:44:40.490Z,101281.45
2018-10-21T21:47:09.470Z,101281.30
2018-10-21T21:49:38.481Z,101277.43
2018-10-21T21:52:07.508Z,101275.30
2018-10-21T21:54:36.429Z,101274.05
2018-10-21T21:57:05.786Z,101265.70
2018-10-21T21:59:34.782Z,101269.61
2018-10-21T22:02:04.192Z,101264.02
2018-10-21T22:04:33.141Z,101267.33
2018-10-21T22:07:02.150Z,101260.92
2018-10-21T22:09:31.128Z,101253.84
2018-10-21T22:12:00.138Z,101256.81
2018-10-21T22:14:29.097Z,101256.20
2018-10-21T22:16:58.108Z,101255.60
2018-10-21T22:19:27.098Z,101251.78
2018-10-21T22:21:56.148Z,101246.02
2018-10-21T22:24:25.117Z,101252.66
2018-10-21T22:26:54.039Z,101253.06
2018-10-21T22:29:22.989Z,101252.09
2018-10-21T22:31:51.983Z,101238.00
2018-10-21T22:34:20.968Z,101239.09
2018-10-21T22:36:49.969Z,101238.84
2018-10-21T22:39:18.967Z,101234.25
2018-10-21T22:41:47.978Z,101235.12
2018-10-21T22:44:17.008Z,101241.94
2018-10-21T22:46:46.179Z,101248.27
2018-10-21T22:49:15.043Z,101245.23
2018-10-21T22:51:44.109Z,101239.92
2018-10-21T22:54:13.190Z,101231.95
2018-10-21T22:56:42.145Z,101235.30
2018-10-21T22:59:11.125Z,101232.23
2018-10-21T23:01:40.102Z,101229.66
2018-10-21T23:04:09.210Z,101231.75
2018-10-21T23:06:38.118Z,101233.80
2018-10-21T23:09:08.744Z,101232.77
2018-10-21T23:11:37.891Z,101231.27
2018-10-21T23:14:06.818Z,101233.14
2018-10-21T23:16:35.849Z,101237.42
2018-10-21T23:19:16.392Z,101236.61
2018-10-21T23:21:45.416Z,101242.67
2018-10-21T23:24:14.513Z,101236.47
2018-10-21T23:26:43.391Z,101237.13
2018-10-21T23:29:12.349Z,101236.35
2018-10-21T23:31:41.349Z,101234.70
2018-10-21T23:34:10.425Z,101234.22
2018-10-21T23:36:39.351Z,101231.04
2018-10-21T23:39:08.314Z,101238.05
2018-10-21T23:41:37.330Z,101238.23
2018-10-21T23:44:06.370Z,101233.92
2018-10-21T23:46:35.332Z,101232.75
2018-10-21T23:49:04.323Z,101229.77
2018-10-21T23:51:33.323Z,101229.59
2018-10-21T23:54:02.330Z,101227.75
2018-10-21T23:56:31.289Z,101228.90
2018-10-21T23:59:00.294Z,101221.74
